Time;durP1;ratioP1;P1;durP2;ratioP2;P2;SDS_P1;SDS_P2;PMS_P1;PMS_P2;Temp;Humidity;BMP_temperature;BMP_pressure;BME280_temperature;BME280_humidity;BME280_pressure;Samples;Min_cycle;Max_cycle;Signal;HPM_P1;HPM_P2
2023/12/03 00:01:37;;;;;;;21.07;11.13;;;;;;;-2.23;99.41;101039.66;5050568;28;20191;-73
2023/12/03 00:04:04;;;;;;;20.30;11.23;;;;;;;-2.22;99.30;101043.03;5045671;28;20196;-73
2023/12/03 00:06:30;;;;;;;21.23;10.77;;;;;;;-2.24;99.37;101045.84;5045857;28;20582;-73
2023/12/03 00:08:58;;;;;;;17.73;10.17;;;;;;;-2.23;99.32;101049.22;5056146;28;20226;-73
2023/12/03 00:11:24;;;;;;;23.30;12.27;;;;;;;-2.24;99.50;101048.44;5042683;28;20195;-74
2023/12/03 00:13:51;;;;;;;20.33;10.73;;;;;;;-2.22;99.50;101051.59;5044581;28;20196;-74
2023/12/03 00:16:18;;;;;;;21.07;10.63;;;;;;;-2.21;99.60;101055.72;5049438;28;20223;-73
2023/12/03 00:18:45;;;;;;;22.80;12.27;;;;;;;-2.22;100.00;101049.00;5051891;28;20195;-73
2023/12/03 00:21:11;;;;;;;22.27;12.07;;;;;;;-2.20;99.52;101057.31;5045548;28;20211;-73
2023/12/03 00:23:37;;;;;;;24.43;11.23;;;;;;;-2.20;100.00;101051.34;5044131;28;20203;-73
2023/12/03 00:26:04;;;;;;;22.27;11.33;;;;;;;-2.20;99.67;101067.66;5044694;28;20192;-73
2023/12/03 00:28:31;;;;;;;25.90;13.63;;;;;;;-2.19;99.58;101058.09;5050055;28;20198;-73
2023/12/03 00:30:57;;;;;;;21.70;11.13;;;;;;;-2.20;100.00;101056.50;5045861;28;20203;-74
2023/12/03 00:33:25;;;;;;;19.60;10.03;;;;;;;-2.20;99.68;101057.31;5049449;28;20192;-73
2023/12/03 00:35:51;;;;;;;19.67;9.37;;;;;;;-2.18;99.64;101054.50;5048281;28;20210;-74
2023/12/03 00:38:17;;;;;;;19.20;11.20;;;;;;;-2.18;99.89;101059.66;5044920;28;20356;-74
2023/12/03 00:40:44;;;;;;;21.23;11.17;;;;;;;-2.19;99.72;101053.69;5050797;28;20205;-74
2023/12/03 00:43:10;;;;;;;21.70;11.10;;;;;;;-2.17;99.55;101066.41;5051209;28;20207;-74
2023/12/03 00:45:37;;;;;;;19.47;10.70;;;;;;;-2.17;99.82;101069.78;5049919;28;20218;-73
2023/12/03 00:48:03;;;;;;;21.27;10.67;;;;;;;-2.18;99.72;101063.03;5049037;28;20246;-73
2023/12/03 00:50:31;;;;;;;25.40;11.43;;;;;;;-2.18;99.74;101070.00;5041813;28;20204;-74
2023/12/03 00:52:57;;;;;;;19.47;10.60;;;;;;;-2.19;100.00;101071.81;5047724;28;20195;-74
2023/12/03 00:55:24;;;;;;;21.23;11.00;;;;;;;-2.18;100.00;101068.19;5048390;28;20203;-74
2023/12/03 00:57:50;;;;;;;23.50;11.00;;;;;;;-2.17;99.97;101072.38;5048129;28;20314;-74
2023/12/03 01:00:17;;;;;;;19.53;10.07;;;;;;;-2.17;100.00;101074.97;5049001;28;20195;-74
2023/12/03 01:02:44;;;;;;;19.27;9.87;;;;;;;-2.17;100.00;101077.53;5045239;28;20551;-74
2023/12/03 01:05:10;;;;;;;22.20;11.17;;;;;;;-2.16;100.00;101078.31;5049875;28;20207;-74
2023/12/03 01:07:38;;;;;;;20.57;10.17;;;;;;;-2.16;100.00;101080.91;5051616;28;20584;-74
2023/12/03 01:10:05;;;;;;;21.30;10.90;;;;;;;-2.14;100.00;101084.06;5048816;28;20571;-73
2023/12/03 01:12:31;;;;;;;22.37;11.57;;;;;;;-2.14;100.00;101087.41;5044308;28;20198;-74
2023/12/03 01:14:57;;;;;;;22.30;10.80;;;;;;;-2.14;100.00;101097.75;5049331;28;20203;-74
2023/12/03 01:17:24;;;;;;;21.10;10.70;;;;;;;-2.12;100.00;101103.50;5044217;28;20215;-74
2023/12/03 01:19:50;;;;;;;21.23;10.97;;;;;;;-2.12;100.00;101105.31;5042355;28;20207;-73
2023/12/03 01:22:17;;;;;;;23.67;11.17;;;;;;;-2.09;100.00;101099.66;5044117;28;20219;-73
2023/12/03 01:24:45;;;;;;;19.73;10.90;;;;;;;-2.07;100.00;101110.56;5048030;28;20552;-74
2023/12/03 01:27:11;;;;;;;23.30;11.53;;;;;;;-2.07;100.00;101105.41;5049238;28;20630;-73
2023/12/03 01:29:39;;;;;;;23.63;11.67;;;;;;;-2.06;100.00;101110.34;5049799;28;20685;-73
2023/12/03 01:32:06;;;;;;;20.83;10.77;;;;;;;-2.06;100.00;101112.13;5048007;28;20203;-73
2023/12/03 01:34:33;;;;;;;20.03;10.50;;;;;;;-2.07;100.00;101110.56;5048496;28;20192;-73
2023/12/03 01:37:00;;;;;;;26.00;11.33;;;;;;;-2.07;100.00;101113.16;5046552;28;20232;-73
2023/12/03 01:39:27;;;;;;;21.87;11.90;;;;;;;-2.10;100.00;101113.59;5044244;28;20635;-73
2023/12/03 01:41:54;;;;;;;23.40;10.43;;;;;;;-2.12;100.00;101118.22;5047554;28;20203;-74
2023/12/03 01:44:21;;;;;;;21.27;10.40;;;;;;;-2.13;100.00;101132.97;5047471;28;20278;-74
2023/12/03 01:46:49;;;;;;;21.33;11.23;;;;;;;-2.12;100.00;101128.59;5048310;28;20211;-73
2023/12/03 01:49:15;;;;;;;23.10;10.07;;;;;;;-2.11;100.00;101130.16;5049389;28;20219;-74
2023/12/03 01:51:42;;;;;;;21.07;10.93;;;;;;;-2.10;100.00;101136.88;5046473;28;20200;-74
2023/12/03 01:54:09;;;;;;;23.87;12.27;;;;;;;-2.11;100.00;101138.72;5044472;28;20593;-74
2023/12/03 01:56:35;;;;;;;22.23;11.50;;;;;;;-2.08;100.00;101137.47;5046364;28;20229;-74
2023/12/03 01:59:03;;;;;;;21.57;11.23;;;;;;;-2.07;100.00;101144.97;5043758;28;20690;-74
2023/12/03 02:01:30;;;;;;;23.70;11.53;;;;;;;-2.05;100.00;101147.34;5047308;28;20470;-73
2023/12/03 02:03:56;;;;;;;25.50;11.10;;;;;;;-2.03;100.00;101147.91;5045232;28;20435;-73
2023/12/03 02:06:22;;;;;;;23.30;11.03;;;;;;;-2.02;100.00;101139.91;5053779;28;20227;-74
2023/12/03 02:08:49;;;;;;;23.93;11.07;;;;;;;-2.01;100.00;101154.44;5046336;28;20207;-73
2023/12/03 02:11:15;;;;;;;21.50;11.37;;;;;;;-2.00;100.00;101150.03;5045164;28;20237;-73
2023/12/03 02:13:43;;;;;;;25.90;11.57;;;;;;;-2.00;99.85;101150.03;5048532;28;20697;-73
2023/12/03 02:16:10;;;;;;;22.50;11.57;;;;;;;-1.98;100.00;101151.38;5047702;28;20677;-74
2023/12/03 02:18:37;;;;;;;24.67;11.00;;;;;;;-1.97;100.00;101147.00;5046300;28;20282;-73
2023/12/03 02:21:04;;;;;;;23.53;11.60;;;;;;;-1.97;99.99;101159.94;5054254;28;20199;-74
2023/12/03 02:23:32;;;;;;;22.53;11.27;;;;;;;-1.98;100.00;101159.13;5048616;28;21315;-73
2023/12/03 02:25:59;;;;;;;22.73;11.83;;;;;;;-1.94;100.00;101167.22;5064782;28;20591;-73
2023/12/03 02:28:25;;;;;;;26.07;11.77;;;;;;;-1.91;100.00;101166.78;5050315;28;20203;-73
2023/12/03 02:30:52;;;;;;;25.77;12.47;;;;;;;-1.92;100.00;101168.56;5044123;28;20220;-73
2023/12/03 02:33:18;;;;;;;24.20;11.80;;;;;;;-1.90;100.00;101170.94;5045654;28;20705;-73
2023/12/03 02:35:44;;;;;;;22.73;11.60;;;;;;;-1.89;100.00;101180.25;5039054;28;20210;-73
2023/12/03 02:38:11;;;;;;;28.10;12.63;;;;;;;-1.88;100.00;101182.63;5051268;28;20227;-73
2023/12/03 02:40:39;;;;;;;26.57;11.87;;;;;;;-1.88;100.00;101181.84;5044116;28;20341;-73
2023/12/03 02:43:05;;;;;;;26.20;12.53;;;;;;;-1.87;99.78;101180.84;5049511;28;20663;-74
2023/12/03 02:45:32;;;;;;;27.23;12.80;;;;;;;-1.85;99.87;101183.97;5043120;28;20202;-73
2023/12/03 02:47:59;;;;;;;27.13;12.23;;;;;;;-1.85;99.95;101179.59;5048048;28;20302;-73
2023/12/03 02:50:25;;;;;;;25.50;12.43;;;;;;;-1.83;99.86;101180.13;5040753;28;20228;-73
2023/12/03 02:52:51;;;;;;;28.77;13.20;;;;;;;-1.82;99.77;101191.28;5040797;28;20286;-73
2023/12/03 02:55:18;;;;;;;24.17;12.47;;;;;;;-1.83;100.00;101192.31;5042263;28;20204;-73
2023/12/03 02:57:45;;;;;;;24.00;12.53;;;;;;;-1.81;99.88;101193.66;5042112;28;20226;-73
2023/12/03 03:00:13;;;;;;;25.00;11.90;;;;;;;-1.80;100.00;101200.41;5046611;28;20195;-73
2023/12/03 03:02:39;;;;;;;28.17;13.37;;;;;;;-1.79;100.00;101201.16;5040867;28;20276;-74
2023/12/03 03:05:06;;;;;;;27.43;12.70;;;;;;;-1.78;99.88;101203.53;5044856;28;20701;-73
2023/12/03 03:07:33;;;;;;;28.40;12.67;;;;;;;-1.76;100.00;101205.91;5042277;28;20276;-73
2023/12/03 03:09:59;;;;;;;25.87;13.20;;;;;;;-1.77;100.00;101202.50;5042883;28;20223;-74
2023/12/03 03:12:25;;;;;;;25.00;12.53;;;;;;;-1.78;100.00;101211.28;5046760;28;20203;-73
2023/12/03 03:14:53;;;;;;;27.80;12.70;;;;;;;-1.77;100.00;101210.28;5049022;28;20375;-73
2023/12/03 03:17:19;;;;;;;28.73;12.70;;;;;;;-1.75;100.00;101212.66;5050101;28;20305;-73
2023/12/03 03:19:46;;;;;;;27.40;13.20;;;;;;;-1.74;100.00;101209.84;5047543;28;20187;-73
2023/12/03 03:22:12;;;;;;;24.53;12.03;;;;;;;-1.74;99.95;101222.78;5046556;28;20225;-73
2023/12/03 03:24:39;;;;;;;27.47;12.83;;;;;;;-1.74;100.00;101215.00;5043542;28;20191;-73
2023/12/03 03:27:05;;;;;;;27.70;12.17;;;;;;;-1.72;99.97;101219.97;5050120;28;20243;-74
2023/12/03 03:29:32;;;;;;;30.70;12.67;;;;;;;-1.73;99.94;101224.34;5049265;28;20202;-73
2023/12/03 03:32:00;;;;;;;31.93;13.80;;;;;;;-1.72;99.83;101225.13;5043706;28;20199;-73
2023/12/03 03:34:26;;;;;;;28.93;12.80;;;;;;;-1.73;99.93;101224.34;5052141;28;20195;-74
2023/12/03 03:36:53;;;;;;;27.20;12.87;;;;;;;-1.71;99.98;101224.88;5043191;28;20223;-74
2023/12/03 03:39:19;;;;;;;29.77;13.00;;;;;;;-1.70;99.97;101223.91;5046399;28;20206;-74
2023/12/03 03:41:46;;;;;;;27.20;12.03;;;;;;;-1.70;100.00;101223.09;5045651;28;20554;-73
2023/12/03 03:44:12;;;;;;;27.13;12.80;;;;;;;-1.71;99.92;101224.88;5046553;28;20694;-73
2023/12/03 03:46:38;;;;;;;30.33;13.23;;;;;;;-1.70;99.90;101230.88;5044558;28;20725;-73
2023/12/03 03:49:06;;;;;;;26.33;13.50;;;;;;;-1.70;99.80;101231.66;5045773;28;20253;-74
2023/12/03 03:51:32;;;;;;;28.57;12.10;;;;;;;-1.68;99.88;101239.19;5046932;28;20234;-73
2023/12/03 03:53:59;;;;;;;25.73;11.77;;;;;;;-1.70;100.00;101239.44;5044512;28;20196;-73
2023/12/03 03:56:25;;;;;;;30.43;13.13;;;;;;;-1.71;99.67;101237.81;5048381;28;20225;-73
2023/12/03 03:58:51;;;;;;;30.60;12.60;;;;;;;-1.70;99.95;101243.81;5040152;28;20197;-73
2023/12/03 04:01:18;;;;;;;23.10;11.73;;;;;;;-1.70;99.99;101244.59;5041056;28;20573;-73
2023/12/03 04:03:44;;;;;;;25.20;12.77;;;;;;;-1.70;100.00;101246.41;5049066;28;20495;-73
2023/12/03 04:06:12;;;;;;;25.10;11.60;;;;;;;-1.69;99.95;101246.19;5042714;28;20212;-73
2023/12/03 04:08:39;;;;;;;26.43;12.77;;;;;;;-1.70;99.91;101244.59;5045225;28;20524;-73
2023/12/03 04:11:06;;;;;;;25.10;12.60;;;;;;;-1.69;99.76;101247.97;5049756;28;20219;-73
2023/12/03 04:13:32;;;;;;;28.83;12.27;;;;;;;-1.69;100.00;101243.59;5039084;28;20192;-73
2023/12/03 04:15:59;;;;;;;27.53;12.43;;;;;;;-1.69;99.80;101250.56;5044062;28;20575;-72
2023/12/03 04:18:26;;;;;;;28.60;13.00;;;;;;;-1.70;99.83;101249.78;5044465;28;20211;-74
2023/12/03 04:20:52;;;;;;;24.40;12.07;;;;;;;-1.71;99.88;101244.81;5043443;28;20600;-74
2023/12/03 04:23:20;;;;;;;30.90;13.23;;;;;;;-1.74;99.59;101248.66;5036027;28;20595;-74
2023/12/03 04:25:46;;;;;;;24.40;11.47;;;;;;;-1.76;99.54;101252.50;5039287;28;20567;-73
2023/12/03 04:28:12;;;;;;;21.67;10.43;;;;;;;-1.80;99.22;101254.75;5041476;28;20246;-73
2023/12/03 04:30:39;;;;;;;25.13;12.07;;;;;;;-1.84;99.40;101250.25;5040833;28;20223;-73
2023/12/03 04:33:05;;;;;;;22.13;11.33;;;;;;;-1.88;99.13;101262.09;5047064;28;20944;-73
2023/12/03 04:35:31;;;;;;;25.67;11.97;;;;;;;-1.92;99.24;101259.13;5046049;28;20234;-73
2023/12/03 04:37:58;;;;;;;25.43;12.13;;;;;;;-1.94;99.38;101266.34;5047657;28;20219;-73
2023/12/03 04:40:25;;;;;;;23.20;11.33;;;;;;;-1.98;99.28;101262.63;5056442;28;20349;-73
2023/12/03 04:42:52;;;;;;;26.87;12.83;;;;;;;-2.00;99.59;101262.09;5041788;28;20207;-74
2023/12/03 04:45:18;;;;;;;23.97;11.53;;;;;;;-2.00;100.00;101267.25;5046550;28;20245;-73
2023/12/03 04:47:45;;;;;;;24.77;11.90;;;;;;;-2.01;99.87;101276.03;5043381;28;20581;-73
2023/12/03 04:50:11;;;;;;;27.37;12.63;;;;;;;-2.00;99.82;101269.06;5042046;28;20211;-74
2023/12/03 04:52:38;;;;;;;26.20;12.00;;;;;;;-2.02;99.89;101271.84;5047080;28;20246;-73
2023/12/03 04:55:05;;;;;;;22.37;10.93;;;;;;;-2.03;100.00;101277.28;5051963;28;20203;-73
2023/12/03 04:57:33;;;;;;;23.30;11.30;;;;;;;-2.05;100.00;101276.69;5045442;28;20227;-73
2023/12/03 04:59:59;;;;;;;23.83;11.53;;;;;;;-2.07;99.73;101276.91;5048331;28;20718;-73
2023/12/03 05:02:26;;;;;;;21.23;10.67;;;;;;;-2.07;99.94;101281.31;5047957;28;20593;-73
2023/12/03 05:04:52;;;;;;;23.80;11.60;;;;;;;-2.12;99.85;101274.25;5042743;28;20730;-73
2023/12/03 05:07:18;;;;;;;28.50;11.97;;;;;;;-2.15;99.80;101271.31;5047731;28;20223;-73
2023/12/03 05:09:45;;;;;;;25.73;11.97;;;;;;;-2.18;99.87;101274.34;5054169;28;20700;-74
2023/12/03 05:12:11;;;;;;;22.97;10.70;;;;;;;-2.23;99.63;101274.25;5049152;28;20590;-73
2023/12/03 05:14:39;;;;;;;20.70;9.87;;;;;;;-2.32;99.43;101276.38;5043621;28;20204;-73
2023/12/03 05:17:05;;;;;;;28.83;11.23;;;;;;;-2.38;99.41;101279.81;5046360;28;20226;-73
2023/12/03 05:19:32;;;;;;;24.73;12.67;;;;;;;-2.46;99.56;101281.97;5046676;28;20195;-73
2023/12/03 05:21:58;;;;;;;26.47;11.40;;;;;;;-2.56;99.59;101290.28;5049512;28;20671;-73
2023/12/03 05:24:24;;;;;;;24.30;10.43;;;;;;;-2.66;99.91;101284.84;5051876;28;20674;-73
2023/12/03 05:26:51;;;;;;;21.63;10.83;;;;;;;-2.76;100.00;101291.59;5050706;28;20690;-73
2023/12/03 05:29:18;;;;;;;20.07;9.70;;;;;;;-2.88;99.96;101288.16;5043354;28;20476;-74
2023/12/03 05:31:46;;;;;;;20.40;9.57;;;;;;;-2.97;100.00;101287.69;5048945;28;20248;-74
2023/12/03 05:34:13;;;;;;;20.63;10.20;;;;;;;-3.07;100.00;101292.59;5052073;28;20479;-73
2023/12/03 05:36:39;;;;;;;21.03;10.77;;;;;;;-3.17;100.00;101301.88;5045715;28;20463;-74
2023/12/03 05:39:06;;;;;;;20.20;9.50;;;;;;;-3.27;100.00;101299.03;5049867;28;20458;-74
2023/12/03 05:41:38;;;;;;;20.53;9.50;;;;;;;-3.37;100.00;101299.50;5052993;28;20816;-73
2023/12/03 05:44:05;;;;;;;17.67;8.97;;;;;;;-3.47;100.00;101301.03;5040397;28;20457;-74
2023/12/03 05:46:31;;;;;;;18.20;8.50;;;;;;;-3.56;100.00;101304.91;5043308;28;20465;-74
2023/12/03 05:48:59;;;;;;;21.97;10.07;;;;;;;-3.66;100.00;101307.19;5050916;28;20761;-74
2023/12/03 05:51:25;;;;;;;24.03;10.70;;;;;;;-3.74;100.00;101308.25;5047322;28;20476;-73
2023/12/03 05:53:51;;;;;;;24.70;10.77;;;;;;;-3.80;100.00;101313.47;5053258;28;20452;-74
2023/12/03 05:56:18;;;;;;;18.50;8.77;;;;;;;-3.84;100.00;101313.13;5048795;28;20464;-73
2023/12/03 05:58:44;;;;;;;22.13;9.77;;;;;;;-3.90;100.00;101318.34;5048792;28;20467;-75
2023/12/03 06:01:10;;;;;;;21.40;11.20;;;;;;;-3.92;100.00;101320.34;5078253;28;20472;-75
2023/12/03 06:03:37;;;;;;;22.80;10.37;;;;;;;-3.95;100.00;101328.53;5048801;28;20454;-75
2023/12/03 06:06:05;;;;;;;20.07;10.20;;;;;;;-3.96;100.00;101329.50;5051363;28;20454;-76
2023/12/03 06:08:31;;;;;;;19.27;9.90;;;;;;;-3.95;100.00;101328.53;5047527;28;20817;-74
2023/12/03 06:10:57;;;;;;;23.97;10.97;;;;;;;-3.92;100.00;101334.06;5048102;28;21006;-74
2023/12/03 06:13:24;;;;;;;23.87;11.40;;;;;;;-3.89;100.00;101331.03;5054837;28;21088;-73
2023/12/03 06:15:50;;;;;;;21.47;10.40;;;;;;;-3.87;100.00;101335.97;5050127;28;20987;-74
2023/12/03 06:18:17;;;;;;;24.63;11.33;;;;;;;-3.82;100.00;101339.53;5053131;28;20560;-74
2023/12/03 06:20:43;;;;;;;25.20;11.10;;;;;;;-3.78;100.00;101340.66;5048547;28;20448;-74
2023/12/03 06:23:12;;;;;;;23.50;11.13;;;;;;;-3.74;100.00;101339.22;5050168;28;20472;-74
2023/12/03 06:25:38;;;;;;;25.30;11.73;;;;;;;-3.69;100.00;101344.53;5046040;28;20464;-74
2023/12/03 06:28:04;;;;;;;24.10;11.03;;;;;;;-3.65;100.00;101350.06;5042907;28;21086;-74
2023/12/03 06:30:31;;;;;;;27.97;12.37;;;;;;;-3.58;100.00;101349.00;5049673;28;20947;-74
2023/12/03 06:32:57;;;;;;;24.37;11.77;;;;;;;-3.54;100.00;101344.19;5044890;28;20817;-74
2023/12/03 06:35:23;;;;;;;25.10;10.73;;;;;;;-3.49;100.00;101352.06;5047140;28;21031;-74
2023/12/03 06:37:50;;;;;;;24.60;11.30;;;;;;;-3.42;100.00;101345.84;5048895;28;20542;-74
2023/12/03 06:40:17;;;;;;;28.90;13.10;;;;;;;-3.37;100.00;101340.81;5045820;28;20464;-73
2023/12/03 06:42:44;;;;;;;28.83;12.87;;;;;;;-3.30;100.00;101351.09;5047231;28;20473;-73
2023/12/03 06:45:12;;;;;;;29.83;13.90;;;;;;;-3.25;100.00;101346.06;5047016;28;20455;-74
2023/12/03 06:47:38;;;;;;;25.40;12.50;;;;;;;-3.19;100.00;101352.94;5047107;28;21036;-74
2023/12/03 06:50:05;;;;;;;28.73;12.93;;;;;;;-3.15;100.00;101367.00;5050090;28;20941;-74
2023/12/03 06:52:32;;;;;;;26.97;12.00;;;;;;;-3.11;100.00;101368.16;5047201;28;20469;-74
2023/12/03 06:54:58;;;;;;;32.07;12.83;;;;;;;-3.07;100.00;101369.31;5049694;28;20460;-74
2023/12/03 06:57:26;;;;;;;30.60;11.77;;;;;;;-3.01;100.00;101379.53;5048416;28;20480;-73
2023/12/03 06:59:52;;;;;;;26.07;11.87;;;;;;;-2.97;100.00;101383.28;5045336;28;20445;-74
2023/12/03 07:02:18;;;;;;;25.70;12.17;;;;;;;-2.92;100.00;101393.75;5047004;28;20434;-74
2023/12/03 07:04:45;;;;;;;27.03;12.77;;;;;;;-2.88;100.00;101392.31;5045792;28;20526;-74
2023/12/03 07:07:11;;;;;;;30.27;13.13;;;;;;;-2.82;100.00;101400.97;5044851;28;20481;-74
2023/12/03 07:09:38;;;;;;;27.97;11.90;;;;;;;-2.79;100.00;101406.53;5034985;28;20465;-74
2023/12/03 07:12:05;;;;;;;24.90;11.17;;;;;;;-2.75;100.00;101410.22;5036218;28;21016;-74
2023/12/03 07:14:32;;;;;;;24.37;11.73;;;;;;;-2.72;100.00;101409.78;5044404;28;20456;-74
2023/12/03 07:16:59;;;;;;;26.23;11.43;;;;;;;-2.68;100.00;101412.72;5041353;28;20473;-74
2023/12/03 07:19:25;;;;;;;25.33;11.63;;;;;;;-2.64;100.00;101419.06;5046722;28;20462;-74
2023/12/03 07:21:51;;;;;;;25.57;11.83;;;;;;;-2.60;100.00;101420.97;5046845;28;20452;-75
2023/12/03 07:24:18;;;;;;;29.27;12.30;;;;;;;-2.55;100.00;101417.75;5048398;28;20461;-74
2023/12/03 07:26:44;;;;;;;31.17;12.13;;;;;;;-2.48;100.00;101415.84;5040062;28;20486;-75
2023/12/03 07:29:11;;;;;;;28.30;12.33;;;;;;;-2.42;100.00;101422.72;5046342;28;20442;-74
2023/12/03 07:31:39;;;;;;;29.00;13.20;;;;;;;-2.37;100.00;101415.09;5044646;28;20477;-74
2023/12/03 07:34:05;;;;;;;34.87;13.87;;;;;;;-2.30;100.00;101423.53;5038728;28;20456;-73
2023/12/03 07:36:31;;;;;;;37.37;13.50;;;;;;;-2.22;100.00;101428.41;5043563;28;20299;-73
2023/12/03 07:38:58;;;;;;;32.43;14.47;;;;;;;-2.14;100.00;101435.88;5040302;28;20207;-73
2023/12/03 07:41:24;;;;;;;34.93;15.20;;;;;;;-2.05;100.00;101432.75;5043975;28;20195;-73
2023/12/03 07:43:51;;;;;;;40.53;15.77;;;;;;;-1.97;100.00;101431.63;5044998;28;20199;-73
2023/12/03 07:46:18;;;;;;;41.93;18.47;;;;;;;-1.89;100.00;101439.06;5044469;28;20322;-74
2023/12/03 07:48:45;;;;;;;37.80;16.50;;;;;;;-1.82;100.00;101445.72;5041345;28;20208;-73
2023/12/03 07:51:12;;;;;;;43.70;19.00;;;;;;;-1.74;100.00;101447.97;5036689;28;20257;-73
2023/12/03 07:53:40;;;;;;;39.63;19.50;;;;;;;-1.66;100.00;101447.63;5046527;28;20207;-74
2023/12/03 07:56:07;;;;;;;38.10;16.87;;;;;;;-1.58;100.00;101446.53;5045675;28;20195;-73
2023/12/03 07:58:35;;;;;;;44.33;22.40;;;;;;;-1.50;100.00;101443.59;5042973;28;20544;-74
2023/12/03 08:01:03;;;;;;;46.93;21.70;;;;;;;-1.43;100.00;101446.88;5037217;28;20207;-74
2023/12/03 08:03:30;;;;;;;41.43;17.80;;;;;;;-1.37;100.00;101444.16;5038329;28;20242;-74
2023/12/03 08:05:58;;;;;;;43.37;19.27;;;;;;;-1.31;100.00;101445.09;5042389;28;20214;-73
2023/12/03 08:08:25;;;;;;;39.37;15.80;;;;;;;-1.26;100.00;101455.56;5041083;28;20199;-74
2023/12/03 08:10:52;;;;;;;40.77;19.37;;;;;;;-1.23;100.00;101446.28;5044595;28;20290;-74
2023/12/03 08:13:18;;;;;;;39.33;15.67;;;;;;;-1.18;100.00;101456.00;5041018;28;20202;-74
2023/12/03 08:15:44;;;;;;;32.07;14.40;;;;;;;-1.15;100.00;101452.16;5041469;28;20203;-74
2023/12/03 08:18:11;;;;;;;32.93;14.23;;;;;;;-1.14;100.00;101451.91;5049259;28;20223;-73
2023/12/03 08:20:37;;;;;;;34.27;14.40;;;;;;;-1.13;100.00;101456.88;5057749;28;20199;-74
2023/12/03 08:23:05;;;;;;;39.30;18.40;;;;;;;-1.10;100.00;101453.03;5059466;28;20252;-73
2023/12/03 08:25:31;;;;;;;30.07;14.00;;;;;;;-1.07;100.00;101462.97;5059185;28;20230;-73
2023/12/03 08:27:58;;;;;;;34.23;17.00;;;;;;;-1.06;100.00;101454.16;5047908;28;20223;-73
2023/12/03 08:30:25;;;;;;;36.97;17.50;;;;;;;-1.04;100.00;101461.72;5048540;28;20640;-74
2023/12/03 08:32:51;;;;;;;36.80;16.87;;;;;;;-1.01;100.00;101462.06;5057821;28;20207;-73
2023/12/03 08:35:18;;;;;;;35.53;15.97;;;;;;;-1.02;99.56;101461.25;5062796;28;20277;-73
2023/12/03 08:37:45;;;;;;;43.50;21.13;;;;;;;-0.98;99.32;101459.78;5055869;28;20219;-72
2023/12/03 08:40:13;;;;;;;55.20;25.03;;;;;;;-0.96;99.18;101467.34;5058692;28;20207;-73
2023/12/03 08:42:41;;;;;;;46.93;21.03;;;;;;;-0.93;99.14;101464.31;5061213;28;20203;-74
2023/12/03 08:45:08;;;;;;;36.03;19.07;;;;;;;-0.92;99.11;101466.66;5058524;28;20214;-74
2023/12/03 08:47:34;;;;;;;28.63;15.87;;;;;;;-0.90;98.64;101473.44;5058761;28;20212;-74
2023/12/03 08:50:01;;;;;;;26.90;13.80;;;;;;;-0.89;98.73;101473.19;5054453;28;20206;-74
2023/12/03 08:52:27;;;;;;;25.83;12.27;;;;;;;-0.88;98.33;101472.16;5048300;28;20569;-74
2023/12/03 08:54:53;;;;;;;28.80;14.80;;;;;;;-0.87;98.08;101471.94;5045379;28;20207;-74
2023/12/03 08:57:21;;;;;;;30.50;13.53;;;;;;;-0.83;98.18;101469.66;5044490;28;20233;-74
2023/12/03 08:59:49;;;;;;;28.67;13.60;;;;;;;-0.85;97.85;101479.50;5058910;28;20550;-74
2023/12/03 09:02:16;;;;;;;25.83;11.83;;;;;;;-0.82;97.87;101480.84;5058920;28;20248;-74
2023/12/03 09:04:42;;;;;;;28.70;14.10;;;;;;;-0.83;97.51;101476.69;5047976;28;20249;-74
2023/12/03 09:07:09;;;;;;;22.53;11.50;;;;;;;-0.83;97.40;101474.09;5050982;28;20404;-74
2023/12/03 09:09:35;;;;;;;26.27;13.67;;;;;;;-0.79;97.43;101478.56;5056979;28;20207;-74
2023/12/03 09:12:01;;;;;;;24.83;12.90;;;;;;;-0.78;97.33;101482.72;5047307;28;20224;-73
2023/12/03 09:14:29;;;;;;;23.73;11.27;;;;;;;-0.77;97.37;101484.34;5057704;28;20199;-74
2023/12/03 09:16:57;;;;;;;26.40;14.20;;;;;;;-0.76;97.30;101488.50;5051472;28;20600;-74
2023/12/03 09:19:24;;;;;;;22.73;12.13;;;;;;;-0.73;97.49;101484.66;5049156;28;20229;-73
2023/12/03 09:21:50;;;;;;;28.53;14.10;;;;;;;-0.73;96.96;101496.59;5046701;28;20200;-73
2023/12/03 09:24:17;;;;;;;24.67;12.07;;;;;;;-0.71;97.21;101493.78;5049504;28;20206;-74
2023/12/03 09:26:45;;;;;;;21.00;10.67;;;;;;;-0.68;97.26;101496.69;5042788;28;20212;-74
2023/12/03 09:29:12;;;;;;;20.53;10.73;;;;;;;-0.63;97.16;101509.78;5045817;28;20562;-75
2023/12/03 09:31:40;;;;;;;19.87;10.30;;;;;;;-0.60;97.21;101500.75;5040572;28;20215;-73
2023/12/03 09:34:06;;;;;;;22.27;10.53;;;;;;;-0.55;97.39;101495.66;5049435;28;20390;-74
2023/12/03 09:36:33;;;;;;;22.63;11.50;;;;;;;-0.50;96.96;101499.13;5049445;28;20216;-74
2023/12/03 09:39:00;;;;;;;18.27;9.87;;;;;;;-0.45;96.64;101501.03;5045771;28;20210;-73
2023/12/03 09:41:29;;;;;;;18.27;8.97;;;;;;;-0.40;96.79;101494.13;5043482;28;20195;-74
2023/12/03 09:44:00;;;;;;;16.90;10.57;;;;;;;-0.34;96.39;101492.44;5047626;28;20201;-74
2023/12/03 09:46:31;;;;;;;15.07;8.83;;;;;;;-0.31;96.12;101495.34;5048073;28;20682;-74
2023/12/03 09:49:01;;;;;;;18.83;10.13;;;;;;;-0.25;96.07;101489.22;5040340;28;20211;-74
2023/12/03 09:51:29;;;;;;;19.10;10.50;;;;;;;-0.21;95.92;101489.53;5046379;28;20293;-74
2023/12/03 09:53:58;;;;;;;21.40;10.27;;;;;;;-0.17;95.68;101498.44;5050516;28;20198;-74
2023/12/03 09:56:26;;;;;;;19.07;9.77;;;;;;;-0.11;95.46;101494.91;5045673;28;20585;-74
2023/12/03 09:58:53;;;;;;;17.30;9.30;;;;;;;-0.08;94.79;101497.06;5046325;28;20196;-74
2023/12/03 10:01:21;;;;;;;16.27;9.63;;;;;;;-0.02;95.23;101496.13;5047871;28;20194;-73
2023/12/03 10:03:49;;;;;;;16.33;8.53;;;;;;;-0.02;94.40;101496.94;5048845;28;20210;-74
2023/12/03 10:06:19;;;;;;;16.57;9.07;;;;;;;0.00;94.89;101500.06;5046505;28;20245;-74
2023/12/03 10:08:47;;;;;;;15.97;8.30;;;;;;;0.07;94.62;101498.09;5040599;28;20282;-74
2023/12/03 10:11:21;;;;;;;15.97;8.87;;;;;;;0.09;94.09;101501.28;5036620;28;20203;-74
2023/12/03 10:13:50;;;;;;;19.33;8.40;;;;;;;0.13;93.71;101496.38;5042201;28;20211;-74
2023/12/03 10:16:18;;;;;;;13.53;7.63;;;;;;;0.19;93.75;101496.25;5051692;28;20221;-74
2023/12/03 10:18:44;;;;;;;18.03;10.93;;;;;;;0.25;93.79;101491.91;5045479;28;20215;-74
2023/12/03 10:21:12;;;;;;;15.50;8.53;;;;;;;0.28;93.32;101499.25;5036326;28;20282;-74
2023/12/03 10:23:39;;;;;;;14.17;8.67;;;;;;;0.32;93.03;101498.53;5038446;28;20278;-74
2023/12/03 10:26:10;;;;;;;15.17;8.73;;;;;;;0.36;93.00;101496.25;5040603;28;20199;-74
2023/12/03 10:28:37;;;;;;;13.13;7.80;;;;;;;0.39;92.93;101501.78;5038268;28;20527;-74
2023/12/03 10:31:04;;;;;;;14.67;7.90;;;;;;;0.41;92.63;101499.72;5033867;28;20207;-74
2023/12/03 10:33:30;;;;;;;12.60;7.80;;;;;;;0.43;92.30;101496.88;5044726;28;20246;-73
2023/12/03 10:36:02;;;;;;;16.73;9.20;;;;;;;0.48;92.31;101510.72;5042708;28;20666;-74
2023/12/03 10:38:36;;;;;;;16.90;8.83;;;;;;;0.53;92.40;101497.81;5047508;28;20700;-74
2023/12/03 10:41:06;;;;;;;17.17;9.07;;;;;;;0.57;92.42;101505.94;5038845;28;20215;-73
2023/12/03 10:43:34;;;;;;;16.27;8.30;;;;;;;0.59;91.70;101514.28;5038514;28;20195;-74
2023/12/03 10:46:01;;;;;;;15.00;8.93;;;;;;;0.61;92.78;101514.81;5043068;28;20195;-74
2023/12/03 10:48:30;;;;;;;15.40;8.17;;;;;;;0.63;91.76;101516.16;5041914;28;20203;-74
2023/12/03 10:51:03;;;;;;;16.73;8.40;;;;;;;0.65;91.42;101518.53;5040797;28;20195;-74
2023/12/03 10:53:31;;;;;;;16.00;9.47;;;;;;;0.67;91.13;101512.06;5040718;28;20215;-74
2023/12/03 10:55:58;;;;;;;15.13;8.27;;;;;;;0.67;91.17;101519.88;5041898;28;20401;-74
2023/12/03 10:58:26;;;;;;;16.67;9.57;;;;;;;0.70;90.24;101524.59;5042325;28;20195;-74
2023/12/03 11:01:00;;;;;;;14.77;8.17;;;;;;;0.71;90.48;101515.78;5041447;28;20188;-74
2023/12/03 11:03:36;;;;;;;15.87;8.20;;;;;;;0.71;90.29;101513.19;5041062;28;20602;-74
2023/12/03 11:06:04;;;;;;;16.10;9.13;;;;;;;0.76;90.53;101509.84;5058952;28;20199;-74